Time;durP1;ratioP1;P1;durP2;ratioP2;P2;SDS_P1;SDS_P2;PMS_P1;PMS_P2;Temp;Humidity;BMP_temperature;BMP_pressure;BME280_temperature;BME280_humidity;BME280_pressure;Samples;Min_cycle;Max_cycle;Signal;HPM_P1;HPM_P2
2022/03/19 00:01:56;;;;;;;74.60;45.33;;;;;;;;;;4953557;28;20569;-63
2022/03/19 00:04:23;;;;;;;73.82;44.75;;;;;;;;;;4953884;28;20055;-63
2022/03/19 00:06:49;;;;;;;69.32;43.78;;;;;;;;;;4953666;28;20051;-63
2022/03/19 00:09:16;;;;;;;76.18;44.50;;;;;;;;;;4954044;28;20071;-63
2022/03/19 00:11:43;;;;;;;71.93;43.38;;;;;;;;;;4953646;28;20062;-63
2022/03/19 00:14:12;;;;;;;75.05;44.92;;;;;;;;;;4954108;28;20062;-63
2022/03/19 00:16:39;;;;;;;75.57;45.50;;;;;;;;;;4953874;28;20288;-62
2022/03/19 00:19:08;;;;;;;70.63;43.42;;;;;;;;;;4953917;28;20055;-62
2022/03/19 00:21:36;;;;;;;75.78;45.38;;;;;;;;;;4953494;28;20087;-63
2022/03/19 00:24:04;;;;;;;79.55;45.25;;;;;;;;;;4953152;28;20055;-63
2022/03/19 00:26:31;;;;;;;72.20;44.47;;;;;;;;;;4953479;28;20098;-63
2022/03/19 00:28:57;;;;;;;72.05;45.60;;;;;;;;;;4953396;28;20047;-63
2022/03/19 00:31:24;;;;;;;71.47;43.72;;;;;;;;;;4953462;28;20105;-64
2022/03/19 00:33:51;;;;;;;67.75;42.33;;;;;;;;;;4953622;28;20074;-64
2022/03/19 00:36:17;;;;;;;72.47;44.00;;;;;;;;;;4953539;28;20055;-65
2022/03/19 00:38:44;;;;;;;75.88;43.15;;;;;;;;;;4953484;28;20055;-63
2022/03/19 00:41:10;;;;;;;70.75;44.53;;;;;;;;;;4953070;28;20106;-63
2022/03/19 00:43:37;;;;;;;72.50;42.88;;;;;;;;;;4953592;28;20450;-63
2022/03/19 00:46:04;;;;;;;71.75;45.15;;;;;;;;;;4953506;28;20102;-63
2022/03/19 00:48:30;;;;;;;69.85;42.72;;;;;;;;;;4953393;28;20052;-64
2022/03/19 00:50:57;;;;;;;65.00;41.53;;;;;;;;;;4953120;28;20430;-64
2022/03/19 00:53:24;;;;;;;68.07;40.75;;;;;;;;;;4953199;28;20110;-64
2022/03/19 00:55:50;;;;;;;74.20;42.05;;;;;;;;;;4956355;28;20422;-64
2022/03/19 00:58:17;;;;;;;68.15;42.20;;;;;;;;;;4957130;28;20124;-64
2022/03/19 01:00:44;;;;;;;69.70;41.90;;;;;;;;;;4956895;28;20051;-64
2022/03/19 01:03:10;;;;;;;66.60;40.72;;;;;;;;;;4957054;28;20066;-64
2022/03/19 01:05:37;;;;;;;70.35;43.10;;;;;;;;;;4956875;28;20134;-64
2022/03/19 01:08:04;;;;;;;61.30;39.10;;;;;;;;;;4956828;28;20426;-63
2022/03/19 01:10:31;;;;;;;65.45;39.58;;;;;;;;;;4956876;28;20399;-63
2022/03/19 01:12:57;;;;;;;67.68;40.03;;;;;;;;;;4956719;28;20411;-63
2022/03/19 01:15:25;;;;;;;65.18;40.45;;;;;;;;;;4956819;28;20051;-64
2022/03/19 01:17:51;;;;;;;65.28;39.75;;;;;;;;;;4956608;28;20078;-63
2022/03/19 01:20:18;;;;;;;61.33;38.70;;;;;;;;;;4956445;28;20047;-63
2022/03/19 01:22:46;;;;;;;62.38;37.75;;;;;;;;;;4955839;28;20054;-63
2022/03/19 01:25:14;;;;;;;64.63;40.35;;;;;;;;;;4956618;28;20051;-63
2022/03/19 01:27:41;;;;;;;60.90;38.75;;;;;;;;;;4956168;28;20506;-63
2022/03/19 01:30:09;;;;;;;62.78;38.45;;;;;;;;;;4956369;29;20105;-63
2022/03/19 01:32:35;;;;;;;62.83;37.40;;;;;;;;;;4956309;28;20099;-63
2022/03/19 01:35:02;;;;;;;62.25;39.08;;;;;;;;;;4956403;28;20125;-63
2022/03/19 01:37:29;;;;;;;62.05;38.08;;;;;;;;;;4956031;28;20062;-63
2022/03/19 01:39:56;;;;;;;63.63;38.63;;;;;;;;;;4956119;28;20076;-64
2022/03/19 01:42:29;;;;;;;64.32;38.33;;;;;;;;;;4956147;28;20142;-63
2022/03/19 01:44:56;;;;;;;63.58;38.85;;;;;;;;;;4956297;28;20418;-63
2022/03/19 01:47:24;;;;;;;61.90;38.05;;;;;;;;;;4956406;28;20102;-64
2022/03/19 01:49:50;;;;;;;59.47;36.95;;;;;;;;;;4955801;28;20051;-63
2022/03/19 01:52:17;;;;;;;59.08;36.03;;;;;;;;;;4955841;28;20110;-63
2022/03/19 01:54:46;;;;;;;57.25;36.10;;;;;;;;;;4955896;28;20079;-63
2022/03/19 01:57:18;;;;;;;60.67;36.58;;;;;;;;;;4954816;28;20051;-64
2022/03/19 01:59:45;;;;;;;58.07;36.07;;;;;;;;;;4954830;29;20122;-64
2022/03/19 02:02:11;;;;;;;55.90;35.55;;;;;;;;;;4955872;29;20122;-64
2022/03/19 02:04:39;;;;;;;62.78;36.63;;;;;;;;;;4955731;28;20047;-64
2022/03/19 02:07:10;;;;;;;59.50;37.08;;;;;;;;;;4954570;28;20095;-64
2022/03/19 02:09:37;;;;;;;59.90;36.72;;;;;;;;;;4955789;28;20549;-64
2022/03/19 02:12:04;;;;;;;58.17;35.97;;;;;;;;;;4955597;28;20051;-64
2022/03/19 02:14:34;;;;;;;62.78;37.17;;;;;;;;;;4956063;28;20047;-63
2022/03/19 02:17:02;;;;;;;58.45;36.00;;;;;;;;;;4955847;28;20051;-64
2022/03/19 02:26:07;;;;;;;58.78;35.47;;;;;;;;;;4956124;29;20056;-64
2022/03/19 02:28:33;;;;;;;59.60;36.97;;;;;;;;;;4955698;28;20059;-64
2022/03/19 02:31:00;;;;;;;60.75;36.53;;;;;;;;;;4955690;28;20051;-64
2022/03/19 02:33:26;;;;;;;58.30;35.72;;;;;;;;;;4954460;29;20098;-64
2022/03/19 02:35:53;;;;;;;61.67;38.35;;;;;;;;;;4955195;29;20109;-64
2022/03/19 02:38:19;;;;;;;63.88;36.65;;;;;;;;;;4955644;28;20062;-64
2022/03/19 02:40:46;;;;;;;59.92;37.53;;;;;;;;;;4954142;29;20051;-64
2022/03/19 02:43:13;;;;;;;61.45;36.03;;;;;;;;;;4955421;28;20051;-64
2022/03/19 02:45:40;;;;;;;56.85;35.83;;;;;;;;;;4955469;28;20055;-64
2022/03/19 02:48:07;;;;;;;57.08;35.15;;;;;;;;;;4955200;28;20057;-64
2022/03/19 02:50:35;;;;;;;54.90;33.63;;;;;;;;;;4955407;28;20047;-64
2022/03/19 02:53:07;;;;;;;52.38;34.92;;;;;;;;;;4955418;28;20426;-63
2022/03/19 02:55:36;;;;;;;57.47;36.00;;;;;;;;;;4954971;28;20502;-64
2022/03/19 02:58:03;;;;;;;55.80;34.75;;;;;;;;;;4955085;28;20102;-63
2022/03/19 03:00:30;;;;;;;54.30;33.40;;;;;;;;;;4954579;28;20055;-63
2022/03/19 03:02:57;;;;;;;57.15;35.38;;;;;;;;;;4954854;28;20058;-63
2022/03/19 03:05:24;;;;;;;59.75;36.10;;;;;;;;;;4954674;28;20054;-63
2022/03/19 03:07:50;;;;;;;57.50;33.20;;;;;;;;;;4954591;28;20059;-64
2022/03/19 03:10:17;;;;;;;60.40;36.20;;;;;;;;;;4954465;28;20047;-63
2022/03/19 03:12:44;;;;;;;60.85;36.28;;;;;;;;;;4953334;29;20552;-63
2022/03/19 03:15:10;;;;;;;59.08;34.58;;;;;;;;;;4954370;28;20494;-64
2022/03/19 03:17:37;;;;;;;61.72;35.10;;;;;;;;;;4954203;28;20106;-63
2022/03/19 03:20:04;;;;;;;55.30;34.55;;;;;;;;;;4937485;29;20098;-63
2022/03/19 03:22:31;;;;;;;57.33;35.45;;;;;;;;;;4953661;28;20106;-63
2022/03/19 03:24:58;;;;;;;57.45;36.75;;;;;;;;;;4953151;29;20106;-64
2022/03/19 03:27:24;;;;;;;57.10;35.10;;;;;;;;;;4954116;28;20051;-63
2022/03/19 03:29:51;;;;;;;55.10;34.95;;;;;;;;;;4954000;28;20129;-64
2022/03/19 03:32:18;;;;;;;56.85;34.95;;;;;;;;;;4954440;28;20110;-63
2022/03/19 03:34:45;;;;;;;57.17;35.60;;;;;;;;;;4954383;28;20098;-63
2022/03/19 03:37:12;;;;;;;56.88;36.90;;;;;;;;;;4954747;28;20553;-63
2022/03/19 03:39:38;;;;;;;61.85;36.22;;;;;;;;;;4954319;28;20051;-63
2022/03/19 03:42:05;;;;;;;57.50;34.72;;;;;;;;;;4954336;28;20059;-63
2022/03/19 03:44:32;;;;;;;58.53;35.53;;;;;;;;;;4953874;28;20118;-63
2022/03/19 03:47:01;;;;;;;60.10;35.78;;;;;;;;;;4954347;28;20645;-63
2022/03/19 03:49:28;;;;;;;62.28;35.35;;;;;;;;;;4954098;28;20055;-64
2022/03/19 03:51:54;;;;;;;64.05;37.50;;;;;;;;;;4954017;28;20114;-63
2022/03/19 03:54:21;;;;;;;65.20;37.25;;;;;;;;;;4954150;28;20044;-63
2022/03/19 03:56:47;;;;;;;59.63;36.70;;;;;;;;;;4952917;29;20470;-63
2022/03/19 03:59:14;;;;;;;61.55;37.17;;;;;;;;;;4953993;28;20051;-63
2022/03/19 04:01:41;;;;;;;60.22;36.72;;;;;;;;;;4953889;28;20051;-63
2022/03/19 04:04:08;;;;;;;59.00;36.13;;;;;;;;;;4953874;28;20052;-63
2022/03/19 04:06:34;;;;;;;59.80;36.95;;;;;;;;;;4953922;28;20051;-64
2022/03/19 04:09:01;;;;;;;67.18;37.45;;;;;;;;;;4953640;28;20051;-63
2022/03/19 04:11:28;;;;;;;58.00;35.83;;;;;;;;;;4953597;28;20070;-64
2022/03/19 04:13:54;;;;;;;60.55;36.10;;;;;;;;;;4953811;28;20098;-63
2022/03/19 04:16:22;;;;;;;58.67;36.00;;;;;;;;;;4953813;28;20117;-63
2022/03/19 04:18:48;;;;;;;58.83;36.08;;;;;;;;;;4953812;28;20082;-63
2022/03/19 04:21:15;;;;;;;61.90;36.55;;;;;;;;;;4953631;28;20126;-64
2022/03/19 04:23:41;;;;;;;60.65;35.88;;;;;;;;;;4952915;28;20051;-64
2022/03/19 04:26:08;;;;;;;61.30;36.17;;;;;;;;;;4953999;28;20059;-63
2022/03/19 04:28:35;;;;;;;58.25;35.20;;;;;;;;;;4953786;28;20055;-63
2022/03/19 04:31:02;;;;;;;59.58;36.85;;;;;;;;;;4957215;28;20102;-64
2022/03/19 04:33:28;;;;;;;56.65;34.60;;;;;;;;;;4957357;28;20051;-64
2022/03/19 04:38:40;;;;;;;60.35;36.17;;;;;;;;;;4957044;28;20055;-63
2022/03/19 04:41:08;;;;;;;59.25;36.30;;;;;;;;;;4957097;28;20102;-63
2022/03/19 04:43:34;;;;;;;56.97;34.90;;;;;;;;;;4957277;28;20059;-64
2022/03/19 04:46:01;;;;;;;60.90;35.83;;;;;;;;;;4957343;28;20055;-63
2022/03/19 04:48:30;;;;;;;57.88;36.90;;;;;;;;;;4957077;28;20091;-63
2022/03/19 04:50:56;;;;;;;55.80;34.35;;;;;;;;;;4956870;28;20098;-63
2022/03/19 04:53:23;;;;;;;61.88;35.08;;;;;;;;;;4956860;28;20115;-64
2022/03/19 04:55:50;;;;;;;59.42;35.88;;;;;;;;;;4956958;28;20554;-64
2022/03/19 04:58:16;;;;;;;61.95;35.35;;;;;;;;;;4956987;28;20051;-63
2022/03/19 05:00:43;;;;;;;63.92;36.28;;;;;;;;;;4956993;28;20059;-63
2022/03/19 05:03:12;;;;;;;56.60;34.28;;;;;;;;;;4956866;28;20090;-63
2022/03/19 05:05:40;;;;;;;61.58;34.80;;;;;;;;;;4957170;28;20118;-63
2022/03/19 05:08:06;;;;;;;56.28;36.17;;;;;;;;;;4956911;28;20055;-63
2022/03/19 05:13:18;;;;;;;54.35;34.75;;;;;;;;;;4957124;29;20051;-63
2022/03/19 05:15:45;;;;;;;51.92;32.95;;;;;;;;;;4956733;28;20051;-64
2022/03/19 05:18:12;;;;;;;57.53;34.97;;;;;;;;;;4956505;28;20047;-63
2022/03/19 05:20:38;;;;;;;57.88;34.78;;;;;;;;;;4956679;28;20199;-63
2022/03/19 05:23:06;;;;;;;54.13;34.42;;;;;;;;;;4955749;28;20055;-63
2022/03/19 05:25:33;;;;;;;60.78;35.42;;;;;;;;;;4956614;28;20051;-63
2022/03/19 05:27:59;;;;;;;55.10;33.40;;;;;;;;;;4977904;23;20063;-65
2022/03/19 05:30:30;;;;;;;53.88;32.72;;;;;;;;;;4956297;28;20078;-65
2022/03/19 05:32:57;;;;;;;60.85;35.88;;;;;;;;;;4956501;28;20089;-66
2022/03/19 05:35:24;;;;;;;54.30;33.35;;;;;;;;;;4956423;28;20047;-65
2022/03/19 05:37:51;;;;;;;59.75;35.65;;;;;;;;;;4955248;28;20146;-64
2022/03/19 05:40:17;;;;;;;60.95;36.42;;;;;;;;;;4955984;28;20082;-65
2022/03/19 05:42:44;;;;;;;59.75;33.35;;;;;;;;;;4956284;28;20066;-64
2022/03/19 05:45:12;;;;;;;59.55;35.28;;;;;;;;;;4956050;29;20454;-65
2022/03/19 05:47:39;;;;;;;61.58;35.63;;;;;;;;;;4956375;28;20125;-65
2022/03/19 05:50:06;;;;;;;62.88;34.97;;;;;;;;;;4956237;28;20082;-65
2022/03/19 05:52:33;;;;;;;58.45;35.08;;;;;;;;;;4956277;28;20103;-65
2022/03/19 05:55:00;;;;;;;56.85;33.90;;;;;;;;;;4956170;29;20051;-65
2022/03/19 05:57:26;;;;;;;58.22;34.45;;;;;;;;;;4955995;28;20512;-65
2022/03/19 05:59:56;;;;;;;58.83;34.95;;;;;;;;;;4955704;28;20097;-63
2022/03/19 06:02:22;;;;;;;53.10;33.15;;;;;;;;;;4956032;29;20110;-65
2022/03/19 06:04:49;;;;;;;58.05;35.25;;;;;;;;;;4956014;29;20098;-65
2022/03/19 06:07:16;;;;;;;56.15;33.28;;;;;;;;;;4955743;28;20098;-65
2022/03/19 06:09:42;;;;;;;53.25;32.40;;;;;;;;;;4955682;29;20481;-65
2022/03/19 06:12:09;;;;;;;55.83;33.78;;;;;;;;;;4955822;29;20051;-64
2022/03/19 06:14:36;;;;;;;55.22;33.22;;;;;;;;;;4954319;29;20572;-65
2022/03/19 06:17:03;;;;;;;58.42;33.85;;;;;;;;;;4956041;28;20051;-65
2022/03/19 06:19:29;;;;;;;54.17;33.08;;;;;;;;;;4955685;28;20047;-65
2022/03/19 06:21:56;;;;;;;53.30;32.35;;;;;;;;;;4955562;28;20646;-65
2022/03/19 06:24:23;;;;;;;52.72;32.05;;;;;;;;;;4955672;29;20094;-64
2022/03/19 06:26:51;;;;;;;50.25;31.55;;;;;;;;;;4956897;28;20073;-64
2022/03/19 06:29:17;;;;;;;53.47;33.72;;;;;;;;;;4956587;28;20047;-65
2022/03/19 06:31:44;;;;;;;52.38;31.40;;;;;;;;;;4955525;29;20051;-65
2022/03/19 06:34:11;;;;;;;51.85;32.00;;;;;;;;;;4955218;28;20568;-63
2022/03/19 06:39:22;;;;;;;50.78;32.90;;;;;;;;;;4954915;28;20051;-64
2022/03/19 06:41:49;;;;;;;53.03;32.42;;;;;;;;;;4955376;29;20402;-64
2022/03/19 06:44:15;;;;;;;52.42;32.75;;;;;;;;;;4955293;28;20047;-66
2022/03/19 06:46:42;;;;;;;48.92;31.48;;;;;;;;;;4955218;28;20569;-66
2022/03/19 06:49:09;;;;;;;51.40;31.50;;;;;;;;;;4955049;28;20059;-66
2022/03/19 06:51:36;;;;;;;48.83;29.75;;;;;;;;;;4954498;28;20055;-65
2022/03/19 06:54:04;;;;;;;58.63;32.15;;;;;;;;;;4954703;28;20491;-64
2022/03/19 06:56:31;;;;;;;47.45;30.27;;;;;;;;;;4955078;28;20054;-65
2022/03/19 06:58:58;;;;;;;51.13;30.70;;;;;;;;;;4954797;28;20055;-64
2022/03/19 07:01:24;;;;;;;46.53;29.35;;;;;;;;;;4954747;28;20059;-65
2022/03/19 07:03:51;;;;;;;50.75;31.10;;;;;;;;;;4954812;29;20540;-65
2022/03/19 07:06:18;;;;;;;52.22;31.70;;;;;;;;;;4954630;29;20047;-65
2022/03/19 07:09:05;;;;;;;51.25;31.05;;;;;;;;;;4954593;28;20545;-65
2022/03/19 07:11:32;;;;;;;56.40;32.20;;;;;;;;;;4954446;28;20508;-66
2022/03/19 07:14:01;;;;;;;55.65;32.55;;;;;;;;;;4954613;28;20059;-66
2022/03/19 07:16:28;;;;;;;51.38;30.45;;;;;;;;;;4954614;28;20047;-65
2022/03/19 07:18:55;;;;;;;48.42;29.65;;;;;;;;;;4955181;28;20055;-64
2022/03/19 07:21:22;;;;;;;52.20;30.42;;;;;;;;;;4953494;29;20067;-64
2022/03/19 07:23:50;;;;;;;51.35;30.52;;;;;;;;;;4954519;28;20087;-65
2022/03/19 07:26:17;;;;;;;44.75;29.83;;;;;;;;;;4953350;29;20058;-65
2022/03/19 07:28:43;;;;;;;46.83;29.40;;;;;;;;;;4954804;28;20051;-65
2022/03/19 07:31:10;;;;;;;46.35;27.88;;;;;;;;;;4954422;28;20059;-63
2022/03/19 07:33:37;;;;;;;46.65;28.83;;;;;;;;;;4954245;28;20055;-65
2022/03/19 07:36:04;;;;;;;42.63;27.75;;;;;;;;;;4954328;29;20051;-65
2022/03/19 07:38:31;;;;;;;46.10;27.65;;;;;;;;;;4954421;28;20051;-65
2022/03/19 07:43:43;;;;;;;47.53;27.75;;;;;;;;;;4954224;28;20055;-64
2022/03/19 07:46:10;;;;;;;47.08;27.70;;;;;;;;;;4953937;28;20047;-66
2022/03/19 07:48:37;;;;;;;46.13;27.35;;;;;;;;;;4954176;28;20055;-66
2022/03/19 07:51:04;;;;;;;44.65;27.58;;;;;;;;;;4954228;28;20110;-66
2022/03/19 07:53:30;;;;;;;51.17;26.30;;;;;;;;;;4954101;29;20051;-63
2022/03/19 07:55:57;;;;;;;43.53;25.05;;;;;;;;;;4953939;29;20055;-65
2022/03/19 07:58:24;;;;;;;38.55;25.25;;;;;;;;;;4953933;28;20054;-65
2022/03/19 08:00:50;;;;;;;39.55;24.15;;;;;;;;;;4953640;29;20059;-65
2022/03/19 08:03:19;;;;;;;38.08;25.33;;;;;;;;;;4954054;28;20051;-66
2022/03/19 08:05:46;;;;;;;38.95;23.95;;;;;;;;;;4953772;28;20054;-66
2022/03/19 08:08:12;;;;;;;40.10;23.45;;;;;;;;;;4953972;28;20473;-65
2022/03/19 08:10:39;;;;;;;37.58;24.50;;;;;;;;;;4953699;29;20055;-65
2022/03/19 08:13:07;;;;;;;35.45;23.65;;;;;;;;;;4952768;29;20461;-66
2022/03/19 08:15:34;;;;;;;36.92;22.42;;;;;;;;;;4953903;28;20109;-64
2022/03/19 08:18:01;;;;;;;38.92;22.48;;;;;;;;;;4953951;28;20051;-66
2022/03/19 08:20:27;;;;;;;39.05;23.60;;;;;;;;;;4953472;29;20051;-65
2022/03/19 08:22:55;;;;;;;36.65;22.98;;;;;;;;;;4953707;28;20490;-65
2022/03/19 08:25:22;;;;;;;34.33;22.48;;;;;;;;;;4952694;29;20051;-64
2022/03/19 08:27:53;;;;;;;36.50;21.52;;;;;;;;;;4953813;28;20051;-66
2022/03/19 08:30:19;;;;;;;33.45;20.73;;;;;;;;;;4953452;28;20055;-64
2022/03/19 08:32:46;;;;;;;31.45;20.92;;;;;;;;;;4953850;28;20118;-64
2022/03/19 08:35:13;;;;;;;31.45;21.50;;;;;;;;;;4953594;28;20047;-65
2022/03/19 08:37:44;;;;;;;35.05;21.15;;;;;;;;;;4953729;28;20442;-65
2022/03/19 08:40:19;;;;;;;31.95;21.52;;;;;;;;;;4953412;28;20474;-65
2022/03/19 08:42:53;;;;;;;33.53;20.88;;;;;;;;;;4937865;29;20059;-65
2022/03/19 08:45:20;;;;;;;32.50;21.23;;;;;;;;;;4953850;28;20058;-63
2022/03/19 08:47:47;;;;;;;39.05;21.98;;;;;;;;;;4953546;28;20470;-65
2022/03/19 08:50:14;;;;;;;35.35;21.33;;;;;;;;;;4953490;28;20051;-64
2022/03/19 08:52:41;;;;;;;32.00;20.63;;;;;;;;;;4953331;28;20593;-64
2022/03/19 08:55:08;;;;;;;31.27;21.27;;;;;;;;;;4953626;28;20391;-65
2022/03/19 08:57:35;;;;;;;32.72;20.70;;;;;;;;;;4953590;28;20110;-65
2022/03/19 09:00:03;;;;;;;32.60;20.42;;;;;;;;;;4953326;28;20072;-65
2022/03/19 09:02:44;;;;;;;35.17;21.65;;;;;;;;;;4952162;29;20048;-65
2022/03/19 09:05:11;;;;;;;37.78;21.33;;;;;;;;;;4953361;29;20102;-66
2022/03/19 09:07:38;;;;;;;34.78;22.58;;;;;;;;;;4953431;28;20122;-64
2022/03/19 09:10:05;;;;;;;31.40;20.83;;;;;;;;;;4953408;29;20106;-66
2022/03/19 09:12:35;;;;;;;32.97;21.17;;;;;;;;;;4953303;28;20062;-64
2022/03/19 09:15:02;;;;;;;34.13;21.38;;;;;;;;;;4953655;28;20054;-65
2022/03/19 09:17:29;;;;;;;33.70;20.85;;;;;;;;;;4956786;28;20051;-65
2022/03/19 09:19:55;;;;;;;33.92;21.05;;;;;;;;;;4956583;28;20114;-66
2022/03/19 09:22:22;;;;;;;30.73;21.67;;;;;;;;;;4956864;28;20465;-66
2022/03/19 09:24:48;;;;;;;33.05;21.52;;;;;;;;;;4956867;28;20066;-64
2022/03/19 09:27:15;;;;;;;34.00;23.35;;;;;;;;;;4956563;28;20059;-66
2022/03/19 09:29:42;;;;;;;36.63;22.67;;;;;;;;;;4956651;28;20055;-65
2022/03/19 09:32:12;;;;;;;33.50;22.60;;;;;;;;;;4956305;29;20143;-64
2022/03/19 09:34:39;;;;;;;33.80;21.55;;;;;;;;;;4956535;28;20055;-66
2022/03/19 09:37:06;;;;;;;35.30;23.15;;;;;;;;;;4956602;28;20114;-66
2022/03/19 09:39:34;;;;;;;41.33;23.73;;;;;;;;;;4956367;28;20055;-65
2022/03/19 09:42:02;;;;;;;36.90;22.92;;;;;;;;;;4956295;28;20510;-66
2022/03/19 09:44:29;;;;;;;38.38;23.65;;;;;;;;;;4956405;28;20055;-64
2022/03/19 09:46:56;;;;;;;37.20;23.50;;;;;;;;;;4956089;28;20055;-65
2022/03/19 09:49:22;;;;;;;39.72;23.73;;;;;;;;;;4956343;28;20106;-65
2022/03/19 09:51:54;;;;;;;34.45;24.17;;;;;;;;;;4955151;29;20114;-65
2022/03/19 09:54:22;;;;;;;37.55;22.77;;;;;;;;;;4956183;28;20051;-66
2022/03/19 09:56:50;;;;;;;35.25;23.42;;;;;;;;;;4956013;28;20050;-65
2022/03/19 09:59:17;;;;;;;35.40;23.25;;;;;;;;;;4956049;28;20110;-65
2022/03/19 10:01:45;;;;;;;34.95;23.98;;;;;;;;;;4955694;29;20418;-66
2022/03/19 10:04:15;;;;;;;38.55;24.27;;;;;;;;;;4956151;28;20134;-66
2022/03/19 10:09:47;;;;;;;37.03;23.75;;;;;;;;;;4955751;29;20051;-65
2022/03/19 10:12:21;;;;;;;35.53;24.02;;;;;;;;;;4956269;28;20051;-65
2022/03/19 10:14:53;;;;;;;40.15;25.17;;;;;;;;;;4955927;28;20051;-64
2022/03/19 10:17:32;;;;;;;40.78;24.83;;;;;;;;;;4955756;28;20089;-66
2022/03/19 10:20:04;;;;;;;37.42;25.65;;;;;;;;;;4955661;28;20055;-66
2022/03/19 10:22:31;;;;;;;39.42;25.17;;;;;;;;;;4955498;28;20118;-66
2022/03/19 10:25:07;;;;;;;42.25;25.65;;;;;;;;;;4955539;28;20164;-66
2022/03/19 10:27:36;;;;;;;37.10;24.80;;;;;;;;;;4954692;28;20069;-66
2022/03/19 10:30:02;;;;;;;39.10;25.60;;;;;;;;;;4955535;28;20055;-65
2022/03/19 10:32:29;;;;;;;39.63;26.95;;;;;;;;;;4955357;29;20055;-66
2022/03/19 10:34:56;;;;;;;39.50;26.65;;;;;;;;;;4955329;29;20118;-66
2022/03/19 10:37:39;;;;;;;40.05;26.27;;;;;;;;;;4955234;28;20482;-65
2022/03/19 10:40:08;;;;;;;38.13;25.70;;;;;;;;;;4955223;28;20142;-64
2022/03/19 10:42:40;;;;;;;39.80;25.70;;;;;;;;;;4955205;28;20470;-66
2022/03/19 10:45:08;;;;;;;40.38;25.27;;;;;;;;;;4955181;28;20416;-66
2022/03/19 10:47:41;;;;;;;39.30;24.17;;;;;;;;;;4955387;28;20414;-66
2022/03/19 10:50:09;;;;;;;37.10;22.23;;;;;;;;;;4955662;28;20055;-66
2022/03/19 10:52:37;;;;;;;30.98;20.40;;;;;;;;;;4953828;29;20573;-65
2022/03/19 10:55:04;;;;;;;34.05;21.25;;;;;;;;;;4955017;28;20098;-66
2022/03/19 10:57:31;;;;;;;24.83;18.27;;;;;;;;;;4954716;28;20047;-65
2022/03/19 10:59:58;;;;;;;22.25;15.48;;;;;;;;;;4954621;28;20466;-66
2022/03/19 11:02:26;;;;;;;22.92;14.00;;;;;;;;;;4954766;29;20490;-66
2022/03/19 11:04:54;;;;;;;22.92;15.40;;;;;;;;;;4954859;29;20053;-66
2022/03/19 11:07:20;;;;;;;22.42;14.73;;;;;;;;;;4937771;28;20047;-66
2022/03/19 11:09:47;;;;;;;22.40;14.05;;;;;;;;;;4937724;29;20055;-64
2022/03/19 11:12:14;;;;;;;22.20;14.27;;;;;;;;;;4953372;29;20047;-65
2022/03/19 11:14:40;;;;;;;21.73;13.98;;;;;;;;;;4953742;29;20051;-66
2022/03/19 11:17:24;;;;;;;20.23;12.57;;;;;;;;;;4953304;29;20043;-65
2022/03/19 11:19:52;;;;;;;18.98;12.70;;;;;;;;;;4940052;29;20055;-65
2022/03/19 11:22:19;;;;;;;18.83;11.60;;;;;;;;;;4953358;29;20106;-66
2022/03/19 11:24:54;;;;;;;18.65;11.48;;;;;;;;;;4954382;28;20169;-65
2022/03/19 11:27:21;;;;;;;16.70;11.68;;;;;;;;;;4937561;28;20047;-66
2022/03/19 11:29:48;;;;;;;19.77;12.82;;;;;;;;;;4953814;29;20090;-65
2022/03/19 11:32:21;;;;;;;36.90;13.55;;;;;;;;;;4953124;29;20557;-66
2022/03/19 11:34:48;;;;;;;;;;;;;;;;;;4954857;28;20059;-65
2022/03/19 11:37:15;;;;;;;18.40;12.25;;;;;;;;;;4954040;28;19993;-66
2022/03/19 11:40:01;;;;;;;18.17;11.52;;;;;;;;;;4954260;28;20051;-66
2022/03/19 11:42:31;;;;;;;19.05;12.15;;;;;;;;;;4954219;28;20051;-64
2022/03/19 11:45:09;;;;;;;19.35;11.07;;;;;;;;;;4954556;28;20055;-65
2022/03/19 11:47:43;;;;;;;16.73;10.60;;;;;;;;;;4954250;28;20099;-66
2022/03/19 11:50:23;;;;;;;16.65;10.38;;;;;;;;;;4953867;28;20059;-65
2022/03/19 11:52:53;;;;;;;14.85;8.90;;;;;;;;;;4952941;29;20104;-66
2022/03/19 11:55:23;;;;;;;16.15;9.50;;;;;;;;;;4954056;28;20106;-65
2022/03/19 11:58:03;;;;;;;17.08;10.70;;;;;;;;;;4952883;28;20044;-66
2022/03/19 12:00:31;;;;;;;15.60;10.38;;;;;;;;;;4954304;28;20055;-65
2022/03/19 12:03:15;;;;;;;18.35;10.70;;;;;;;;;;4954002;28;20126;-65
2022/03/19 12:05:44;;;;;;;16.67;10.98;;;;;;;;;;4953934;28;20500;-65
2022/03/19 12:08:18;;;;;;;18.75;10.68;;;;;;;;;;4953762;28;20490;-66
2022/03/19 12:11:17;;;;;;;18.15;10.77;;;;;;;;;;4953713;28;20051;-66
2022/03/19 12:13:49;;;;;;;15.02;9.98;;;;;;;;;;4953810;28;20082;-64
2022/03/19 12:16:39;;;;;;;18.83;10.90;;;;;;;;;;4953852;28;20051;-66
2022/03/19 12:19:06;;;;;;;13.27;9.27;;;;;;;;;;4953619;28;20051;-66
2022/03/19 12:21:34;;;;;;;14.77;10.25;;;;;;;;;;4953796;28;20110;-65
2022/03/19 12:24:08;;;;;;;14.20;9.68;;;;;;;;;;4953664;28;20070;-64
2022/03/19 12:26:38;;;;;;;12.70;8.65;;;;;;;;;;4953945;28;20450;-65
2022/03/19 12:29:06;;;;;;;15.10;9.15;;;;;;;;;;4953737;28;20075;-66
2022/03/19 12:31:34;;;;;;;13.57;9.10;;;;;;;;;;4953469;28;20102;-66
2022/03/19 12:34:02;;;;;;;14.57;8.93;;;;;;;;;;4954242;28;20051;-65
2022/03/19 12:36:29;;;;;;;13.30;8.60;;;;;;;;;;4953905;28;20058;-65
2022/03/19 12:39:00;;;;;;;12.27;7.72;;;;;;;;;;4953735;28;20055;-66
2022/03/19 12:41:27;;;;;;;12.60;7.55;;;;;;;;;;4953512;28;20439;-66
2022/03/19 12:44:29;;;;;;;14.55;8.77;;;;;;;;;;4953612;28;20083;-66
2022/03/19 12:46:59;;;;;;;13.10;7.90;;;;;;;;;;4953803;28;20051;-66
2022/03/19 12:49:27;;;;;;;12.98;7.80;;;;;;;;;;4953390;28;20478;-66
2022/03/19 12:51:55;;;;;;;13.50;8.40;;;;;;;;;;4956836;28;20047;-66
2022/03/19 12:54:29;;;;;;;13.73;8.35;;;;;;;;;;4957132;28;20051;-65
2022/03/19 12:57:10;;;;;;;10.40;7.13;;;;;;;;;;4957496;28;20047;-65
2022/03/19 12:59:37;;;;;;;12.07;7.43;;;;;;;;;;4956056;28;20481;-66
2022/03/19 13:02:04;;;;;;;9.13;6.97;;;;;;;;;;4957475;28;20094;-67
2022/03/19 13:04:31;;;;;;;10.35;7.20;;;;;;;;;;4957173;29;20055;-66
2022/03/19 13:06:58;;;;;;;10.48;6.13;;;;;;;;;;4957236;28;20099;-66
2022/03/19 13:09:32;;;;;;;9.85;6.75;;;;;;;;;;4956814;28;20118;-66
2022/03/19 13:12:01;;;;;;;10.50;6.68;;;;;;;;;;4957189;28;20055;-66
2022/03/19 13:14:27;;;;;;;9.75;6.53;;;;;;;;;;4957240;28;20051;-66
2022/03/19 13:16:55;;;;;;;9.20;6.30;;;;;;;;;;4957159;28;20062;-65
2022/03/19 13:19:23;;;;;;;12.48;6.38;;;;;;;;;;4956545;28;20055;-65
2022/03/19 13:21:51;;;;;;;8.98;6.20;;;;;;;;;;4956949;29;20110;-65
2022/03/19 13:24:18;;;;;;;12.07;6.35;;;;;;;;;;4956978;28;20050;-66
2022/03/19 13:26:45;;;;;;;8.95;5.72;;;;;;;;;;4956965;28;20051;-66
2022/03/19 13:29:14;;;;;;;8.50;5.50;;;;;;;;;;4956468;28;20051;-65
2022/03/19 13:31:43;;;;;;;8.65;5.45;;;;;;;;;;4956388;28;20059;-65
2022/03/19 13:34:19;;;;;;;7.95;5.13;;;;;;;;;;4956383;29;20094;-66
2022/03/19 13:36:56;;;;;;;9.98;5.43;;;;;;;;;;4956651;28;20071;-64
2022/03/19 13:39:27;;;;;;;7.82;5.18;;;;;;;;;;4956310;28;20118;-64
2022/03/19 13:42:04;;;;;;;6.85;4.15;;;;;;;;;;4956477;28;20051;-66
2022/03/19 13:44:33;;;;;;;8.63;5.05;;;;;;;;;;4956214;28;20106;-65
2022/03/19 13:47:14;;;;;;;7.80;4.88;;;;;;;;;;4956296;28;20442;-66
2022/03/19 13:49:55;;;;;;;8.07;4.57;;;;;;;;;;4956052;28;20102;-66
2022/03/19 13:52:49;;;;;;;5.55;4.30;;;;;;;;;;4956474;28;20059;-66
2022/03/19 13:55:40;;;;;;;7.00;4.38;;;;;;;;;;4956276;28;20528;-66
2022/03/19 13:58:11;;;;;;;8.25;4.20;;;;;;;;;;4950104;28;20233;-66
2022/03/19 14:00:39;;;;;;;5.93;3.60;;;;;;;;;;4955820;28;20051;-65
2022/03/19 14:03:12;;;;;;;5.97;3.17;;;;;;;;;;4955715;28;20066;-64
2022/03/19 14:05:40;;;;;;;5.00;3.47;;;;;;;;;;4955882;28;20054;-64
2022/03/19 14:08:10;;;;;;;7.55;3.85;;;;;;;;;;4955761;28;20580;-66
2022/03/19 14:10:43;;;;;;;6.25;4.13;;;;;;;;;;4955636;28;20055;-65
2022/03/19 14:13:18;;;;;;;6.07;3.67;;;;;;;;;;4956144;28;20055;-65
2022/03/19 14:15:51;;;;;;;8.93;3.60;;;;;;;;;;4955601;28;20110;-63
2022/03/19 14:18:26;;;;;;;6.15;3.78;;;;;;;;;;4955750;28;20082;-66
2022/03/19 14:20:53;;;;;;;7.28;3.72;;;;;;;;;;4955418;28;20051;-65
2022/03/19 14:23:20;;;;;;;5.97;3.65;;;;;;;;;;4955724;28;20421;-65
2022/03/19 14:25:47;;;;;;;6.97;3.72;;;;;;;;;;4955433;28;20191;-65
2022/03/19 14:28:15;;;;;;;7.88;3.47;;;;;;;;;;4955428;28;20043;-65
2022/03/19 14:30:42;;;;;;;6.32;3.15;;;;;;;;;;4955405;28;20051;-65
2022/03/19 14:33:09;;;;;;;4.50;3.30;;;;;;;;;;4955575;28;20435;-64
2022/03/19 14:35:47;;;;;;;4.68;2.92;;;;;;;;;;4955782;28;20047;-66
2022/03/19 14:38:24;;;;;;;4.88;3.28;;;;;;;;;;4955312;28;20052;-65
2022/03/19 14:40:51;;;;;;;4.32;2.60;;;;;;;;;;4955000;28;20502;-66
2022/03/19 14:43:18;;;;;;;4.43;2.92;;;;;;;;;;4955184;28;20568;-65
2022/03/19 14:45:47;;;;;;;3.90;2.85;;;;;;;;;;4955206;28;20102;-66
2022/03/19 14:48:14;;;;;;;4.70;2.85;;;;;;;;;;4955259;28;20390;-65
2022/03/19 14:50:44;;;;;;;4.80;2.90;;;;;;;;;;4954913;28;20055;-66